首页
METAR-TAF:

METAR-TAF

机场 :

達爾文國際機場

达尔文, 澳大利亚

纬度: 12-24S, 经度: 130-52E, 海拔: 31米

当前天气观测

该预报发布于11分钟前的00:00 UTC
风速10节,风向东转东北
温度 27°C
湿度 58%
气压 1013 hPa
能见度10公里或以上
少量云层高于2700英尺

METAR: YPDN 170000Z 07010KT 9999 FEW027 27/18 Q1013 NOSIG

时间: 09:41 (00:11 UTC)

预报

该预报发布于1小时和4分钟前的23:07 UTC
预报有效从17日的 00点(UTC)到 18日的 06点(UTC)
风速10节,风向东转东北
能见度10公里或以上
少量云层高于3500英尺
从 17日的 0400点(UTC)
风速10节,风向北转西北
能见度10公里或以上
少量云层高于4000英尺
从 17日的 1500点(UTC)
风速4节,风向南转南东
能见度10公里或以上
少量云层高于1500英尺
从 18日的 0400点(UTC)
风速10节,风向北转西北
能见度10公里或以上
少量云层高于4000英尺

TAF: YPDN 162307Z 1700/1806 07010KT 9999 FEW035 FM170400 33010KT 9999 FEW040 FM171500 15004KT 9999 FEW015 FM180400 33010KT 9999 FEW040

超过4000个机场的气象观测和天气预报(METAR&TAF报告)。

可查询的气象台以黄色和红色小点在地图上表示。

将鼠标移到小点上方,可查看气象台名称。

然后点击查看天气观测和预报。

如需切换地图:点击带黑十字的绿色按钮放大地图;点击带横线的绿色按钮缩小地图;或者点击绿色箭头查看邻近地区的地图。


METAR-TAF: